sensor_id;sensor_type;location;lat;lon;timestamp;pressure;altitude;pressure_sealevel;temperature;humidity
35806;BME280;21925;44.608;11.580;2023-01-27T00:01:36;101233.59;;;5.23;80.32
35806;BME280;21925;44.608;11.580;2023-01-27T00:04:02;101299.50;;;5.60;80.69
35806;BME280;21925;44.608;11.580;2023-01-27T00:06:33;101184.47;;;4.74;81.29
35806;BME280;21925;44.608;11.580;2023-01-27T00:08:59;101325.88;;;5.59;81.65
35806;BME280;21925;44.608;11.580;2023-01-27T00:11:25;101270.59;;;5.19;81.57
35806;BME280;21925;44.608;11.580;2023-01-27T00:14:09;101350.06;;;5.74;81.58
35806;BME280;21925;44.608;11.580;2023-01-27T00:16:35;101302.41;;;5.63;81.62
35806;BME280;21925;44.608;11.580;2023-01-27T00:19:01;101245.44;;;5.27;81.22
35806;BME280;21925;44.608;11.580;2023-01-27T00:21:26;101358.00;;;5.89;81.81
35806;BME280;21925;44.608;11.580;2023-01-27T00:24:11;101339.66;;;5.81;82.01
35806;BME280;21925;44.608;11.580;2023-01-27T00:26:56;101307.69;;;5.42;82.51
35806;BME280;21925;44.608;11.580;2023-01-27T00:29:22;101325.06;;;5.46;83.22
35806;BME280;21925;44.608;11.580;2023-01-27T00:31:48;101327.19;;;5.49;83.84
35806;BME280;21925;44.608;11.580;2023-01-27T00:34:32;101267.63;;;5.02;83.66
35806;BME280;21925;44.608;11.580;2023-01-27T00:36:58;101228.00;;;4.69;84.83
35806;BME280;21925;44.608;11.580;2023-01-27T00:39:24;101364.47;;;5.61;84.50
35806;BME280;21925;44.608;11.580;2023-01-27T00:41:49;101308.66;;;5.19;84.67
35806;BME280;21925;44.608;11.580;2023-01-27T00:44:15;101340.84;;;5.44;84.74
35806;BME280;21925;44.608;11.580;2023-01-27T00:46:42;101352.88;;;5.56;84.74
35806;BME280;21925;44.608;11.580;2023-01-27T00:49:09;101351.94;;;5.47;84.80
35806;BME280;21925;44.608;11.580;2023-01-27T00:51:38;101349.31;;;5.42;85.43
35806;BME280;21925;44.608;11.580;2023-01-27T00:54:04;101351.94;;;5.47;84.99
35806;BME280;21925;44.608;11.580;2023-01-27T00:56:32;101336.16;;;5.62;83.99
35806;BME280;21925;44.608;11.580;2023-01-27T00:58:58;101347.13;;;5.44;84.25
35806;BME280;21925;44.608;11.580;2023-01-27T01:01:27;101277.44;;;4.84;85.13
35806;BME280;21925;44.608;11.580;2023-01-27T01:03:53;101303.19;;;5.05;85.62
35806;BME280;21925;44.608;11.580;2023-01-27T01:06:22;101328.19;;;5.21;85.59
35806;BME280;21925;44.608;11.580;2023-01-27T01:08:52;101355.56;;;5.43;85.32
35806;BME280;21925;44.608;11.580;2023-01-27T01:11:20;101281.56;;;4.82;85.59
35806;BME280;21925;44.608;11.580;2023-01-27T01:13:49;101259.56;;;4.65;85.79
35806;BME280;21925;44.608;11.580;2023-01-27T01:16:18;101258.75;;;4.65;86.09
35806;BME280;21925;44.608;11.580;2023-01-27T01:18:44;101376.97;;;5.31;86.12
35806;BME280;21925;44.608;11.580;2023-01-27T01:21:11;101343.72;;;5.02;86.87
35806;BME280;21925;44.608;11.580;2023-01-27T01:23:39;101243.75;;;4.35;87.09
35806;BME280;21925;44.608;11.580;2023-01-27T01:26:05;101369.88;;;5.16;87.15
35806;BME280;21925;44.608;11.580;2023-01-27T01:28:31;101313.75;;;4.75;87.27
35806;BME280;21925;44.608;11.580;2023-01-27T01:31:03;101314.63;;;4.71;87.70
35806;BME280;21925;44.608;11.580;2023-01-27T01:33:29;101267.94;;;4.50;87.38
35806;BME280;21925;44.608;11.580;2023-01-27T01:36:02;101361.59;;;5.08;87.43
35806;BME280;21925;44.608;11.580;2023-01-27T01:38:28;101340.00;;;4.98;87.03
35806;BME280;21925;44.608;11.580;2023-01-27T01:40:54;101266.47;;;4.58;87.22
35806;BME280;21925;44.608;11.580;2023-01-27T01:43:20;101326.00;;;4.91;87.49
35806;BME280;21925;44.608;11.580;2023-01-27T01:45:54;101367.56;;;5.23;86.61
35806;BME280;21925;44.608;11.580;2023-01-27T01:50:56;101278.28;;;4.67;86.50
35806;BME280;21925;44.608;11.580;2023-01-27T01:53:25;101387.56;;;5.14;86.89
35806;BME280;21925;44.608;11.580;2023-01-27T01:55:57;101232.44;;;4.28;87.64
35806;BME280;21925;44.608;11.580;2023-01-27T01:58:25;101265.28;;;4.45;87.08
35806;BME280;21925;44.608;11.580;2023-01-27T02:00:53;101277.78;;;4.46;87.53
35806;BME280;21925;44.608;11.580;2023-01-27T02:03:22;101313.13;;;4.78;88.03
35806;BME280;21925;44.608;11.580;2023-01-27T02:05:51;101353.66;;;4.93;88.32
35806;BME280;21925;44.608;11.580;2023-01-27T02:08:36;101303.81;;;4.66;88.20
35806;BME280;21925;44.608;11.580;2023-01-27T02:11:06;101326.78;;;4.91;87.83
35806;BME280;21925;44.608;11.580;2023-01-27T02:13:33;101256.47;;;4.53;87.06
35806;BME280;21925;44.608;11.580;2023-01-27T02:15:58;101355.47;;;5.16;87.21
35806;BME280;21925;44.608;11.580;2023-01-27T02:18:25;101299.50;;;4.83;86.99
35806;BME280;21925;44.608;11.580;2023-01-27T02:20:52;101318.25;;;4.98;86.73
35806;BME280;21925;44.608;11.580;2023-01-27T02:23:43;101349.94;;;5.21;86.48
35806;BME280;21925;44.608;11.580;2023-01-27T02:26:29;101351.72;;;5.12;85.75
35806;BME280;21925;44.608;11.580;2023-01-27T02:29:04;101223.47;;;4.46;85.24
35806;BME280;21925;44.608;11.580;2023-01-27T02:31:30;101249.03;;;4.77;84.64
35806;BME280;21925;44.608;11.580;2023-01-27T02:33:59;101230.13;;;4.72;84.61
35806;BME280;21925;44.608;11.580;2023-01-27T02:36:28;101235.22;;;4.60;83.93
35806;BME280;21925;44.608;11.580;2023-01-27T02:38:57;101252.94;;;4.71;83.88
35806;BME280;21925;44.608;11.580;2023-01-27T02:41:52;101318.53;;;5.15;83.46
35806;BME280;21925;44.608;11.580;2023-01-27T02:44:19;101338.41;;;5.29;83.90
35806;BME280;21925;44.608;11.580;2023-01-27T02:46:45;101294.38;;;4.95;84.28
35806;BME280;21925;44.608;11.580;2023-01-27T02:49:11;101319.47;;;5.05;84.20
35806;BME280;21925;44.608;11.580;2023-01-27T02:51:37;101306.34;;;5.12;83.87
35806;BME280;21925;44.608;11.580;2023-01-27T02:54:07;101324.81;;;5.29;83.14
35806;BME280;21925;44.608;11.580;2023-01-27T02:56:34;101320.81;;;5.40;82.75
35806;BME280;21925;44.608;11.580;2023-01-27T02:58:59;101271.41;;;5.06;81.97
35806;BME280;21925;44.608;11.580;2023-01-27T03:01:31;101258.00;;;5.09;82.20
35806;BME280;21925;44.608;11.580;2023-01-27T03:03:58;101292.16;;;5.15;82.16
35806;BME280;21925;44.608;11.580;2023-01-27T03:06:24;101343.81;;;5.60;82.35
35806;BME280;21925;44.608;11.580;2023-01-27T03:08:49;101295.41;;;5.31;82.21
35806;BME280;21925;44.608;11.580;2023-01-27T03:11:15;101287.16;;;5.36;81.60
35806;BME280;21925;44.608;11.580;2023-01-27T03:14:06;101283.81;;;5.25;81.28
35806;BME280;21925;44.608;11.580;2023-01-27T03:16:32;101287.53;;;5.29;81.17
35806;BME280;21925;44.608;11.580;2023-01-27T03:19:16;101233.94;;;5.03;81.03
35806;BME280;21925;44.608;11.580;2023-01-27T03:21:42;101333.25;;;5.59;81.55
35806;BME280;21925;44.608;11.580;2023-01-27T03:24:10;101338.56;;;5.64;82.29
35806;BME280;21925;44.608;11.580;2023-01-27T03:26:37;101342.53;;;5.71;82.48
35806;BME280;21925;44.608;11.580;2023-01-27T03:29:07;101282.53;;;5.49;81.44
35806;BME280;21925;44.608;11.580;2023-01-27T03:31:51;101289.47;;;5.29;82.45
35806;BME280;21925;44.608;11.580;2023-01-27T03:34:18;101340.38;;;5.55;83.01
35806;BME280;21925;44.608;11.580;2023-01-27T03:36:47;101229.44;;;4.80;85.31
35806;BME280;21925;44.608;11.580;2023-01-27T03:39:33;101315.88;;;5.10;86.07
35806;BME280;21925;44.608;11.580;2023-01-27T03:42:17;101283.38;;;5.05;86.50
35806;BME280;21925;44.608;11.580;2023-01-27T03:45:01;101349.94;;;5.21;86.70
35806;BME280;21925;44.608;11.580;2023-01-27T03:47:46;101288.09;;;4.81;85.85
35806;BME280;21925;44.608;11.580;2023-01-27T03:50:11;101322.88;;;5.16;86.09
35806;BME280;21925;44.608;11.580;2023-01-27T03:52:45;101289.28;;;4.75;85.22
35806;BME280;21925;44.608;11.580;2023-01-27T03:55:31;101276.50;;;4.75;84.72
35806;BME280;21925;44.608;11.580;2023-01-27T03:57:57;101336.16;;;5.17;83.84
35806;BME280;21925;44.608;11.580;2023-01-27T04:00:39;101234.22;;;4.19;83.67
35806;BME280;21925;44.608;11.580;2023-01-27T04:03:05;101306.09;;;4.77;84.01
35806;BME280;21925;44.608;11.580;2023-01-27T04:05:49;101316.72;;;4.73;83.44
35806;BME280;21925;44.608;11.580;2023-01-27T04:08:34;101251.66;;;4.50;83.66
35806;BME280;21925;44.608;11.580;2023-01-27T04:11:03;101258.97;;;4.50;83.79
35806;BME280;21925;44.608;11.580;2023-01-27T04:13:48;101221.00;;;3.94;83.59
35806;BME280;21925;44.608;11.580;2023-01-27T04:16:14;101265.59;;;4.25;83.92
35806;BME280;21925;44.608;11.580;2023-01-27T04:18:42;101290.25;;;4.47;83.78
35806;BME280;21925;44.608;11.580;2023-01-27T04:21:08;101315.50;;;4.48;83.99
35806;BME280;21925;44.608;11.580;2023-01-27T04:23:34;101317.13;;;4.67;84.22
35806;BME280;21925;44.608;11.580;2023-01-27T04:26:00;101224.38;;;3.87;84.07
35806;BME280;21925;44.608;11.580;2023-01-27T04:28:26;101339.88;;;4.71;85.03
35806;BME280;21925;44.608;11.580;2023-01-27T04:30:52;101167.94;;;3.47;86.08
35806;BME280;21925;44.608;11.580;2023-01-27T04:33:18;101338.41;;;4.60;86.08
35806;BME280;21925;44.608;11.580;2023-01-27T04:35:43;101271.91;;;4.02;85.88
35806;BME280;21925;44.608;11.580;2023-01-27T04:38:10;101299.78;;;4.26;85.59
35806;BME280;21925;44.608;11.580;2023-01-27T04:40:37;101278.06;;;4.26;85.71
35806;BME280;21925;44.608;11.580;2023-01-27T04:43:02;101191.09;;;3.58;85.08
35806;BME280;21925;44.608;11.580;2023-01-27T04:45:29;101324.53;;;4.80;84.82
35806;BME280;21925;44.608;11.580;2023-01-27T04:47:54;101264.00;;;4.24;84.70
35806;BME280;21925;44.608;11.580;2023-01-27T04:50:20;101281.75;;;4.35;85.37
35806;BME280;21925;44.608;11.580;2023-01-27T04:52:46;101320.84;;;4.71;85.13
35806;BME280;21925;44.608;11.580;2023-01-27T04:55:13;101340.69;;;4.72;83.87
35806;BME280;21925;44.608;11.580;2023-01-27T04:57:40;101349.03;;;4.57;85.19
35806;BME280;21925;44.608;11.580;2023-01-27T05:00:06;101288.50;;;4.19;85.79
35806;BME280;21925;44.608;11.580;2023-01-27T05:02:32;101239.25;;;3.89;86.70
35806;BME280;21925;44.608;11.580;2023-01-27T05:04:58;101267.53;;;3.83;86.65
35806;BME280;21925;44.608;11.580;2023-01-27T05:07:24;101279.50;;;4.00;86.88
35806;BME280;21925;44.608;11.580;2023-01-27T05:09:50;101297.34;;;4.25;85.70
35806;BME280;21925;44.608;11.580;2023-01-27T05:12:16;101307.38;;;4.48;83.87
35806;BME280;21925;44.608;11.580;2023-01-27T05:14:41;101330.63;;;4.72;82.80
35806;BME280;21925;44.608;11.580;2023-01-27T05:17:07;101334.75;;;4.51;83.73
35806;BME280;21925;44.608;11.580;2023-01-27T05:19:33;101349.19;;;4.65;84.74
35806;BME280;21925;44.608;11.580;2023-01-27T05:21:59;101266.38;;;4.07;85.30
35806;BME280;21925;44.608;11.580;2023-01-27T05:24:24;101351.53;;;4.53;85.93
35806;BME280;21925;44.608;11.580;2023-01-27T05:26:50;101182.25;;;3.29;86.64
35806;BME280;21925;44.608;11.580;2023-01-27T05:29:17;101312.97;;;4.14;86.48
35806;BME280;21925;44.608;11.580;2023-01-27T05:31:43;101285.34;;;3.89;86.42
35806;BME280;21925;44.608;11.580;2023-01-27T05:34:09;101320.94;;;4.06;86.38
35806;BME280;21925;44.608;11.580;2023-01-27T05:36:35;101285.47;;;3.79;87.08
35806;BME280;21925;44.608;11.580;2023-01-27T05:39:01;101353.88;;;4.18;87.56
35806;BME280;21925;44.608;11.580;2023-01-27T05:41:30;101298.38;;;4.10;87.37
35806;BME280;21925;44.608;11.580;2023-01-27T05:43:56;101363.03;;;4.45;86.37
35806;BME280;21925;44.608;11.580;2023-01-27T05:46:24;101207.88;;;3.60;85.96
35806;BME280;21925;44.608;11.580;2023-01-27T05:48:53;101225.28;;;3.77;85.10
35806;BME280;21925;44.608;11.580;2023-01-27T05:51:21;101288.84;;;3.90;85.71
35806;BME280;21925;44.608;11.580;2023-01-27T05:53:48;101268.56;;;3.87;85.61
35806;BME280;21925;44.608;11.580;2023-01-27T05:56:16;101359.88;;;4.57;86.14
35806;BME280;21925;44.608;11.580;2023-01-27T05:58:43;101274.31;;;3.81;86.52
35806;BME280;21925;44.608;11.580;2023-01-27T06:01:14;101274.69;;;3.74;86.45
35806;BME280;21925;44.608;11.580;2023-01-27T06:03:41;101369.38;;;4.59;85.86
35806;BME280;21925;44.608;11.580;2023-01-27T06:06:07;101293.69;;;4.16;84.55
35806;BME280;21925;44.608;11.580;2023-01-27T06:08:34;101377.09;;;4.71;83.58
35806;BME280;21925;44.608;11.580;2023-01-27T06:11:01;101324.78;;;4.23;83.33
35806;BME280;21925;44.608;11.580;2023-01-27T06:13:27;101301.31;;;4.14;82.81
35806;BME280;21925;44.608;11.580;2023-01-27T06:15:53;101324.72;;;4.28;82.61
35806;BME280;21925;44.608;11.580;2023-01-27T06:18:21;101328.16;;;4.34;82.37
35806;BME280;21925;44.608;11.580;2023-01-27T06:20:46;101208.84;;;3.69;81.31
35806;BME280;21925;44.608;11.580;2023-01-27T06:23:14;101217.44;;;3.76;81.14
35806;BME280;21925;44.608;11.580;2023-01-27T06:25:42;101321.75;;;4.48;81.64
35806;BME280;21925;44.608;11.580;2023-01-27T06:28:08;101300.44;;;4.37;81.93
35806;BME280;21925;44.608;11.580;2023-01-27T06:30:36;101285.91;;;4.09;81.92
35806;BME280;21925;44.608;11.580;2023-01-27T06:33:03;101380.47;;;4.81;81.63
35806;BME280;21925;44.608;11.580;2023-01-27T06:35:33;101348.00;;;4.53;81.86
35806;BME280;21925;44.608;11.580;2023-01-27T06:38:01;101385.97;;;4.76;82.07
35806;BME280;21925;44.608;11.580;2023-01-27T06:40:28;101379.81;;;4.89;82.73
35806;BME280;21925;44.608;11.580;2023-01-27T06:42:55;101308.41;;;4.10;83.44
35806;BME280;21925;44.608;11.580;2023-01-27T06:45:20;101354.84;;;4.50;84.56
35806;BME280;21925;44.608;11.580;2023-01-27T06:47:53;101294.50;;;4.16;84.41
35806;BME280;21925;44.608;11.580;2023-01-27T06:50:21;101394.94;;;4.76;84.44
35806;BME280;21925;44.608;11.580;2023-01-27T06:52:47;101370.31;;;4.50;84.20
35806;BME280;21925;44.608;11.580;2023-01-27T06:55:12;101333.25;;;4.40;84.14
35806;BME280;21925;44.608;11.580;2023-01-27T06:57:39;101330.63;;;4.35;83.48
35806;BME280;21925;44.608;11.580;2023-01-27T07:00:06;101288.16;;;4.02;84.11
35806;BME280;21925;44.608;11.580;2023-01-27T07:02:33;101344.19;;;4.54;84.06
35806;BME280;21925;44.608;11.580;2023-01-27T07:04:58;101332.81;;;4.33;83.55
35806;BME280;21925;44.608;11.580;2023-01-27T07:07:24;101317.63;;;4.51;83.18
35806;BME280;21925;44.608;11.580;2023-01-27T07:09:53;101372.09;;;4.96;83.16
35806;BME280;21925;44.608;11.580;2023-01-27T07:12:18;101387.22;;;4.83;83.25
35806;BME280;21925;44.608;11.580;2023-01-27T07:14:44;101375.16;;;4.71;82.29
35806;BME280;21925;44.608;11.580;2023-01-27T07:17:10;101306.53;;;4.47;81.88
35806;BME280;21925;44.608;11.580;2023-01-27T07:19:36;101313.03;;;4.51;80.54
35806;BME280;21925;44.608;11.580;2023-01-27T07:22:02;101388.59;;;5.18;79.51
35806;BME280;21925;44.608;11.580;2023-01-27T07:24:28;101299.63;;;4.73;78.40
35806;BME280;21925;44.608;11.580;2023-01-27T07:26:53;101333.41;;;4.85;77.65
35806;BME280;21925;44.608;11.580;2023-01-27T07:29:19;101268.28;;;4.62;77.66
35806;BME280;21925;44.608;11.580;2023-01-27T07:31:45;101308.50;;;4.97;77.10
35806;BME280;21925;44.608;11.580;2023-01-27T07:34:11;101422.13;;;5.63;76.40
35806;BME280;21925;44.608;11.580;2023-01-27T07:36:37;101319.78;;;5.04;76.27
35806;BME280;21925;44.608;11.580;2023-01-27T09:12:34;101456.28;;;7.09;69.79
35806;BME280;21925;44.608;11.580;2023-01-27T09:15:01;101457.97;;;7.18;70.43
35806;BME280;21925;44.608;11.580;2023-01-27T09:17:27;101474.00;;;7.19;70.31
35806;BME280;21925;44.608;11.580;2023-01-27T09:19:52;101462.00;;;7.07;69.74
35806;BME280;21925;44.608;11.580;2023-01-27T09:22:18;101493.88;;;7.33;70.18
35806;BME280;21925;44.608;11.580;2023-01-27T09:24:43;101480.63;;;7.62;69.79
35806;BME280;21925;44.608;11.580;2023-01-27T09:27:09;101476.50;;;7.29;69.25
35806;BME280;21925;44.608;11.580;2023-01-27T09:29:34;101481.16;;;7.29;69.34
35806;BME280;21925;44.608;11.580;2023-01-27T09:32:02;101480.50;;;7.45;70.11
35806;BME280;21925;44.608;11.580;2023-01-27T09:34:29;101463.66;;;7.65;69.20
35806;BME280;21925;44.608;11.580;2023-01-27T09:36:57;101484.50;;;7.83;68.99
35806;BME280;21925;44.608;11.580;2023-01-27T09:39:25;101483.88;;;7.64;68.27
35806;BME280;21925;44.608;11.580;2023-01-27T09:56:14;101501.34;;;7.41;68.78
35806;BME280;21925;44.608;11.580;2023-01-27T10:16:23;101487.00;;;9.09;65.89
35806;BME280;21925;44.608;11.580;2023-01-27T10:27:25;101472.19;;;8.93;66.97
35806;BME280;21925;44.608;11.580;2023-01-27T10:35:18;101460.44;;;10.11;64.89
35806;BME280;21925;44.608;11.580;2023-01-27T10:38:03;101449.63;;;10.06;63.26
35806;BME280;21925;44.608;11.580;2023-01-27T10:49:05;101442.97;;;11.60;60.92
35806;BME280;21925;44.608;11.580;2023-01-27T10:51:34;101445.81;;;11.43;61.62
35806;BME280;21925;44.608;11.580;2023-01-27T10:54:08;101449.00;;;10.84;61.69
35806;BME280;21925;44.608;11.580;2023-01-27T10:56:48;101461.00;;;10.33;61.61
35806;BME280;21925;44.608;11.580;2023-01-27T11:02:10;101433.50;;;10.50;64.53
35806;BME280;21925;44.608;11.580;2023-01-27T11:04:51;101438.72;;;10.72;62.88
35806;BME280;21925;44.608;11.580;2023-01-27T11:07:20;101422.84;;;11.27;64.54
35806;BME280;21925;44.608;11.580;2023-01-27T11:10:06;101436.16;;;10.96;62.57
35806;BME280;21925;44.608;11.580;2023-01-27T11:12:38;101430.13;;;10.82;64.08
35806;BME280;21925;44.608;11.580;2023-01-27T11:15:25;101437.88;;;10.80;63.97
35806;BME280;21925;44.608;11.580;2023-01-27T11:17:56;101436.03;;;10.93;62.61
35806;BME280;21925;44.608;11.580;2023-01-27T11:20:31;101427.06;;;10.75;63.89
35806;BME280;21925;44.608;11.580;2023-01-27T11:31:47;101422.78;;;10.37;63.45
35806;BME280;21925;44.608;11.580;2023-01-27T11:34:40;101424.22;;;10.34;65.42
35806;BME280;21925;44.608;11.580;2023-01-27T11:37:44;101418.50;;;10.11;63.86
35806;BME280;21925;44.608;11.580;2023-01-27T11:40:15;101424.38;;;10.38;65.15
35806;BME280;21925;44.608;11.580;2023-01-27T11:42:42;101408.72;;;9.84;63.45
35806;BME280;21925;44.608;11.580;2023-01-27T11:45:16;101398.75;;;9.88;63.96
35806;BME280;21925;44.608;11.580;2023-01-27T11:47:45;101404.94;;;10.51;66.74
35806;BME280;21925;44.608;11.580;2023-01-27T11:50:14;101411.75;;;11.03;67.12
35806;BME280;21925;44.608;11.580;2023-01-27T11:52:41;101401.03;;;10.32;63.38
35806;BME280;21925;44.608;11.580;2023-01-27T11:55:17;101400.31;;;10.06;63.62
35806;BME280;21925;44.608;11.580;2023-01-27T11:57:51;101392.06;;;10.52;66.57
35806;BME280;21925;44.608;11.580;2023-01-27T12:00:20;101399.41;;;10.89;68.30
35806;BME280;21925;44.608;11.580;2023-01-27T12:03:06;101396.75;;;11.21;67.26
35806;BME280;21925;44.608;11.580;2023-01-27T12:05:41;101391.44;;;11.57;67.81
35806;BME280;21925;44.608;11.580;2023-01-27T12:08:09;101373.72;;;11.13;64.61
35806;BME280;21925;44.608;11.580;2023-01-27T12:10:39;101385.44;;;11.02;62.40
35806;BME280;21925;44.608;11.580;2023-01-27T12:13:18;101374.97;;;11.16;64.65
35806;BME280;21925;44.608;11.580;2023-01-27T12:15:57;101376.25;;;10.49;62.12
35806;BME280;21925;44.608;11.580;2023-01-27T12:18:24;101376.31;;;10.69;63.78
35806;BME280;21925;44.608;11.580;2023-01-27T12:21:01;101377.91;;;10.70;63.70
35806;BME280;21925;44.608;11.580;2023-01-27T12:26:37;101364.28;;;10.82;64.58
35806;BME280;21925;44.608;11.580;2023-01-27T12:29:11;101352.03;;;10.80;63.19
35806;BME280;21925;44.608;11.580;2023-01-27T12:31:47;101366.84;;;11.08;64.91
35806;BME280;21925;44.608;11.580;2023-01-27T12:34:32;101336.56;;;10.75;63.49
35806;BME280;21925;44.608;11.580;2023-01-27T12:37:03;101348.22;;;10.72;63.24
35806;BME280;21925;44.608;11.580;2023-01-27T12:39:42;101347.84;;;10.53;62.28
35806;BME280;21925;44.608;11.580;2023-01-27T12:42:32;101354.00;;;10.50;61.96
35806;BME280;21925;44.608;11.580;2023-01-27T12:44:59;101352.38;;;10.78;62.79
35806;BME280;21925;44.608;11.580;2023-01-27T12:47:27;101338.78;;;10.61;62.15
35806;BME280;21925;44.608;11.580;2023-01-27T12:50:25;101354.09;;;10.83;62.91
35806;BME280;21925;44.608;11.580;2023-01-27T12:53:37;101327.06;;;10.73;62.34
35806;BME280;21925;44.608;11.580;2023-01-27T12:58:05;101332.94;;;10.63;62.02
35806;BME280;21925;44.608;11.580;2023-01-27T13:00:47;101336.31;;;10.68;61.93
35806;BME280;21925;44.608;11.580;2023-01-27T13:03:12;101319.16;;;10.51;61.50
35806;BME280;21925;44.608;11.580;2023-01-27T13:05:39;101340.88;;;10.85;62.56
35806;BME280;21925;44.608;11.580;2023-01-27T13:08:16;101317.09;;;10.68;61.32
35806;BME280;21925;44.608;11.580;2023-01-27T13:10:59;101338.28;;;10.59;61.35
35806;BME280;21925;44.608;11.580;2023-01-27T13:13:27;101331.91;;;10.47;60.57
35806;BME280;21925;44.608;11.580;2023-01-27T13:16:48;101343.19;;;10.74;61.92
35806;BME280;21925;44.608;11.580;2023-01-27T13:18:54;101319.78;;;10.97;62.24
35806;BME280;21925;44.608;11.580;2023-01-27T13:21:23;101332.16;;;11.03;62.85
35806;BME280;21925;44.608;11.580;2023-01-27T13:23:51;101340.84;;;10.64;61.38
35806;BME280;21925;44.608;11.580;2023-01-27T13:26:22;101325.88;;;10.62;62.79
35806;BME280;21925;44.608;11.580;2023-01-27T13:31:55;101331.41;;;10.53;61.85
35806;BME280;21925;44.608;11.580;2023-01-27T13:37:11;101318.94;;;10.85;63.36
35806;BME280;21925;44.608;11.580;2023-01-27T13:39:49;101319.91;;;11.21;65.17
35806;BME280;21925;44.608;11.580;2023-01-27T13:42:42;101318.78;;;11.34;61.95
35806;BME280;21925;44.608;11.580;2023-01-27T13:45:13;101323.59;;;11.57;62.06
35806;BME280;21925;44.608;11.580;2023-01-27T13:50:30;101316.47;;;11.24;60.05
35806;BME280;21925;44.608;11.580;2023-01-27T13:52:58;101313.09;;;10.86;59.70
35806;BME280;21925;44.608;11.580;2023-01-27T13:58:25;101318.91;;;11.05;58.84
35806;BME280;21925;44.608;11.580;2023-01-27T14:09:43;101309.09;;;11.16;58.79
35806;BME280;21925;44.608;11.580;2023-01-27T14:12:28;101325.28;;;10.77;59.25
35806;BME280;21925;44.608;11.580;2023-01-27T14:15:55;101326.41;;;10.76;59.49
35806;BME280;21925;44.608;11.580;2023-01-27T14:18:12;101328.53;;;11.11;61.06
35806;BME280;21925;44.608;11.580;2023-01-27T14:26:57;101334.38;;;11.42;63.17
35806;BME280;21925;44.608;11.580;2023-01-27T14:29:37;101338.84;;;11.14;62.56
35806;BME280;21925;44.608;11.580;2023-01-27T14:43:41;101357.19;;;10.81;63.74
35806;BME280;21925;44.608;11.580;2023-01-27T14:46:21;101351.56;;;10.57;63.83
35806;BME280;21925;44.608;11.580;2023-01-27T15:02:18;101348.19;;;10.23;64.06
35806;BME280;21925;44.608;11.580;2023-01-27T15:04:59;101369.59;;;10.58;64.71
35806;BME280;21925;44.608;11.580;2023-01-27T15:07:45;101372.53;;;10.25;62.66
35806;BME280;21925;44.608;11.580;2023-01-27T15:10:26;101372.97;;;9.89;63.83
35806;BME280;21925;44.608;11.580;2023-01-27T15:12:57;101367.97;;;10.29;64.69
35806;BME280;21925;44.608;11.580;2023-01-27T15:21:39;101368.84;;;10.21;63.95
35806;BME280;21925;44.608;11.580;2023-01-27T15:26:57;101361.56;;;10.53;67.67
35806;BME280;21925;44.608;11.580;2023-01-27T15:29:26;101368.25;;;10.44;65.53
35806;BME280;21925;44.608;11.580;2023-01-27T15:32:21;101375.91;;;10.50;69.04
35806;BME280;21925;44.608;11.580;2023-01-27T15:34:52;101374.09;;;10.34;67.96
35806;BME280;21925;44.608;11.580;2023-01-27T15:37:25;101379.44;;;10.31;67.22
35806;BME280;21925;44.608;11.580;2023-01-27T15:45:38;101372.28;;;10.38;66.04
35806;BME280;21925;44.608;11.580;2023-01-27T15:48:13;101368.94;;;10.32;68.05
35806;BME280;21925;44.608;11.580;2023-01-27T15:50:48;101380.56;;;10.58;69.89
35806;BME280;21925;44.608;11.580;2023-01-27T15:53:31;101383.16;;;10.55;71.18
35806;BME280;21925;44.608;11.580;2023-01-27T15:55:59;101388.34;;;10.48;70.10
35806;BME280;21925;44.608;11.580;2023-01-27T15:58:39;101387.75;;;10.42;69.14
35806;BME280;21925;44.608;11.580;2023-01-27T16:01:07;101379.28;;;10.56;71.47
35806;BME280;21925;44.608;11.580;2023-01-27T16:03:39;101370.84;;;10.40;71.51
35806;BME280;21925;44.608;11.580;2023-01-27T16:06:29;101384.81;;;10.47;70.26
35806;BME280;21925;44.608;11.580;2023-01-27T16:08:59;101397.00;;;10.58;71.28
35806;BME280;21925;44.608;11.580;2023-01-27T16:13:51;101398.63;;;10.31;67.57
35806;BME280;21925;44.608;11.580;2023-01-27T16:27:41;101401.63;;;9.92;69.28
35806;BME280;21925;44.608;11.580;2023-01-27T16:35:47;101399.81;;;9.25;71.12
35806;BME280;21925;44.608;11.580;2023-01-27T16:38:35;101417.16;;;9.12;71.52
35806;BME280;21925;44.608;11.580;2023-01-27T16:41:05;101416.50;;;8.89;71.66
35806;BME280;21925;44.608;11.580;2023-01-27T16:43:43;101419.94;;;9.20;72.29
35806;BME280;21925;44.608;11.580;2023-01-27T16:46:41;101425.38;;;9.37;70.35
35806;BME280;21925;44.608;11.580;2023-01-27T16:49:22;101433.91;;;9.36;70.39
35806;BME280;21925;44.608;11.580;2023-01-27T16:51:53;101423.28;;;9.09;70.20
35806;BME280;21925;44.608;11.580;2023-01-27T16:54:28;101399.94;;;8.94;72.10
35806;BME280;21925;44.608;11.580;2023-01-27T16:56:56;101428.13;;;9.29;70.77
35806;BME280;21925;44.608;11.580;2023-01-27T16:59:27;101420.41;;;9.14;71.17
35806;BME280;21925;44.608;11.580;2023-01-27T17:04:26;101435.19;;;9.21;71.27
35806;BME280;21925;44.608;11.580;2023-01-27T17:07:02;101431.34;;;9.14;71.82
35806;BME280;21925;44.608;11.580;2023-01-27T17:09:30;101433.09;;;9.01;73.54
35806;BME280;21925;44.608;11.580;2023-01-27T17:11:57;101417.97;;;8.95;73.33
35806;BME280;21925;44.608;11.580;2023-01-27T17:14:32;101442.44;;;9.17;74.00
35806;BME280;21925;44.608;11.580;2023-01-27T17:17:01;101444.00;;;8.84;72.17
35806;BME280;21925;44.608;11.580;2023-01-27T17:19:34;101442.34;;;8.67;73.09
35806;BME280;21925;44.608;11.580;2023-01-27T17:22:18;101443.94;;;8.59;73.86
35806;BME280;21925;44.608;11.580;2023-01-27T17:24:48;101452.75;;;8.56;73.75